sensor_id;sensor_type;location;lat;lon;timestamp;P1;durP1;ratioP1;P2;durP2;ratioP2
67156;SDS011;54086;50.126;8.710;2023-02-03T00:01:07;8.68;;;2.72;;
67156;SDS011;54086;50.126;8.710;2023-02-03T00:03:33;12.43;;;4.07;;
67156;SDS011;54086;50.126;8.710;2023-02-03T00:05:59;13.25;;;3.50;;
67156;SDS011;54086;50.126;8.710;2023-02-03T00:08:26;11.95;;;4.15;;
67156;SDS011;54086;50.126;8.710;2023-02-03T00:10:52;11.60;;;5.60;;
67156;SDS011;54086;50.126;8.710;2023-02-03T00:13:18;9.98;;;4.53;;
67156;SDS011;54086;50.126;8.710;2023-02-03T00:15:44;9.52;;;3.17;;
67156;SDS011;54086;50.126;8.710;2023-02-03T00:18:10;7.55;;;3.08;;
67156;SDS011;54086;50.126;8.710;2023-02-03T00:20:36;9.40;;;2.90;;
67156;SDS011;54086;50.126;8.710;2023-02-03T00:23:05;8.20;;;3.17;;
67156;SDS011;54086;50.126;8.710;2023-02-03T00:25:32;8.73;;;2.63;;
67156;SDS011;54086;50.126;8.710;2023-02-03T00:27:57;8.30;;;2.85;;
67156;SDS011;54086;50.126;8.710;2023-02-03T00:30:23;6.57;;;2.40;;
67156;SDS011;54086;50.126;8.710;2023-02-03T00:32:48;11.60;;;2.80;;
67156;SDS011;54086;50.126;8.710;2023-02-03T00:35:14;9.17;;;2.60;;
67156;SDS011;54086;50.126;8.710;2023-02-03T00:37:39;6.90;;;2.30;;
67156;SDS011;54086;50.126;8.710;2023-02-03T00:40:04;8.93;;;2.50;;
67156;SDS011;54086;50.126;8.710;2023-02-03T00:42:30;6.65;;;2.53;;
67156;SDS011;54086;50.126;8.710;2023-02-03T00:44:55;5.60;;;2.30;;
67156;SDS011;54086;50.126;8.710;2023-02-03T00:47:21;8.17;;;2.80;;
67156;SDS011;54086;50.126;8.710;2023-02-03T00:49:46;9.43;;;2.60;;
67156;SDS011;54086;50.126;8.710;2023-02-03T00:52:11;6.63;;;2.73;;
67156;SDS011;54086;50.126;8.710;2023-02-03T00:54:37;7.22;;;2.20;;
67156;SDS011;54086;50.126;8.710;2023-02-03T00:57:02;7.17;;;2.40;;
67156;SDS011;54086;50.126;8.710;2023-02-03T00:59:28;6.90;;;2.20;;
67156;SDS011;54086;50.126;8.710;2023-02-03T01:01:53;7.23;;;2.80;;
67156;SDS011;54086;50.126;8.710;2023-02-03T01:04:18;8.17;;;2.50;;
67156;SDS011;54086;50.126;8.710;2023-02-03T01:06:44;7.60;;;2.38;;
67156;SDS011;54086;50.126;8.710;2023-02-03T01:09:09;6.70;;;2.30;;
67156;SDS011;54086;50.126;8.710;2023-02-03T01:11:34;7.43;;;2.80;;
67156;SDS011;54086;50.126;8.710;2023-02-03T01:14:00;10.17;;;2.90;;
67156;SDS011;54086;50.126;8.710;2023-02-03T01:16:25;7.90;;;2.90;;
67156;SDS011;54086;50.126;8.710;2023-02-03T01:18:51;7.27;;;2.30;;
67156;SDS011;54086;50.126;8.710;2023-02-03T01:21:18;8.38;;;2.50;;
67156;SDS011;54086;50.126;8.710;2023-02-03T01:23:45;6.83;;;2.00;;
67156;SDS011;54086;50.126;8.710;2023-02-03T01:26:13;11.50;;;2.67;;
67156;SDS011;54086;50.126;8.710;2023-02-03T01:28:40;6.70;;;2.10;;
67156;SDS011;54086;50.126;8.710;2023-02-03T01:31:10;8.75;;;2.30;;
67156;SDS011;54086;50.126;8.710;2023-02-03T01:33:40;8.20;;;2.20;;
67156;SDS011;54086;50.126;8.710;2023-02-03T01:36:10;5.13;;;1.90;;
67156;SDS011;54086;50.126;8.710;2023-02-03T01:38:36;7.97;;;2.60;;
67156;SDS011;54086;50.126;8.710;2023-02-03T01:41:03;9.95;;;2.15;;
67156;SDS011;54086;50.126;8.710;2023-02-03T01:43:40;6.75;;;2.00;;
67156;SDS011;54086;50.126;8.710;2023-02-03T01:46:19;6.72;;;2.10;;
67156;SDS011;54086;50.126;8.710;2023-02-03T01:48:50;6.57;;;2.23;;
67156;SDS011;54086;50.126;8.710;2023-02-03T01:51:17;7.65;;;1.80;;
67156;SDS011;54086;50.126;8.710;2023-02-03T01:53:43;7.43;;;2.45;;
67156;SDS011;54086;50.126;8.710;2023-02-03T01:56:09;5.20;;;1.83;;
67156;SDS011;54086;50.126;8.710;2023-02-03T01:58:36;6.40;;;2.23;;
67156;SDS011;54086;50.126;8.710;2023-02-03T02:01:04;6.35;;;2.20;;
67156;SDS011;54086;50.126;8.710;2023-02-03T02:03:31;7.23;;;1.77;;
67156;SDS011;54086;50.126;8.710;2023-02-03T02:06:17;5.63;;;1.67;;
67156;SDS011;54086;50.126;8.710;2023-02-03T02:08:44;5.90;;;2.00;;
67156;SDS011;54086;50.126;8.710;2023-02-03T02:11:11;6.40;;;1.90;;
67156;SDS011;54086;50.126;8.710;2023-02-03T02:13:37;9.73;;;2.07;;
67156;SDS011;54086;50.126;8.710;2023-02-03T02:19:42;6.53;;;1.90;;
67156;SDS011;54086;50.126;8.710;2023-02-03T02:21:58;4.35;;;1.77;;
67156;SDS011;54086;50.126;8.710;2023-02-03T02:31:09;6.45;;;1.88;;
67156;SDS011;54086;50.126;8.710;2023-02-03T02:36:18;4.63;;;1.67;;
67156;SDS011;54086;50.126;8.710;2023-02-03T02:39:04;6.03;;;2.00;;
67156;SDS011;54086;50.126;8.710;2023-02-03T02:42:11;5.47;;;2.00;;
67156;SDS011;54086;50.126;8.710;2023-02-03T02:44:41;5.55;;;2.05;;
67156;SDS011;54086;50.126;8.710;2023-02-03T02:47:15;5.68;;;1.80;;
67156;SDS011;54086;50.126;8.710;2023-02-03T02:49:51;4.90;;;1.60;;
67156;SDS011;54086;50.126;8.710;2023-02-03T02:52:22;3.33;;;1.40;;
67156;SDS011;54086;50.126;8.710;2023-02-03T02:54:51;4.68;;;1.77;;
67156;SDS011;54086;50.126;8.710;2023-02-03T02:57:19;8.40;;;2.05;;
67156;SDS011;54086;50.126;8.710;2023-02-03T02:59:48;5.93;;;1.60;;
67156;SDS011;54086;50.126;8.710;2023-02-03T03:02:13;5.07;;;1.50;;
67156;SDS011;54086;50.126;8.710;2023-02-03T03:04:39;6.07;;;1.40;;
67156;SDS011;54086;50.126;8.710;2023-02-03T03:07:07;6.70;;;1.63;;
67156;SDS011;54086;50.126;8.710;2023-02-03T03:09:47;4.55;;;1.40;;
67156;SDS011;54086;50.126;8.710;2023-02-03T03:12:27;6.93;;;1.50;;
67156;SDS011;54086;50.126;8.710;2023-02-03T03:15:00;3.90;;;1.50;;
67156;SDS011;54086;50.126;8.710;2023-02-03T03:17:31;5.47;;;1.60;;
67156;SDS011;54086;50.126;8.710;2023-02-03T03:20:03;5.32;;;1.60;;
67156;SDS011;54086;50.126;8.710;2023-02-03T03:22:34;4.82;;;1.60;;
67156;SDS011;54086;50.126;8.710;2023-02-03T03:25:08;4.43;;;1.40;;
67156;SDS011;54086;50.126;8.710;2023-02-03T03:27:38;4.40;;;1.40;;
67156;SDS011;54086;50.126;8.710;2023-02-03T03:30:08;4.18;;;1.42;;
67156;SDS011;54086;50.126;8.710;2023-02-03T03:32:34;3.85;;;1.40;;
67156;SDS011;54086;50.126;8.710;2023-02-03T03:35:00;4.35;;;1.60;;
67156;SDS011;54086;50.126;8.710;2023-02-03T03:37:30;3.77;;;1.50;;
67156;SDS011;54086;50.126;8.710;2023-02-03T03:40:01;6.60;;;1.60;;
67156;SDS011;54086;50.126;8.710;2023-02-03T03:45:09;4.40;;;1.50;;
67156;SDS011;54086;50.126;8.710;2023-02-03T03:47:56;5.05;;;1.42;;
67156;SDS011;54086;50.126;8.710;2023-02-03T03:50:27;4.93;;;1.60;;
67156;SDS011;54086;50.126;8.710;2023-02-03T03:52:57;5.60;;;1.67;;
67156;SDS011;54086;50.126;8.710;2023-02-03T03:55:25;4.68;;;1.80;;
67156;SDS011;54086;50.126;8.710;2023-02-03T03:57:58;4.93;;;1.52;;
67156;SDS011;54086;50.126;8.710;2023-02-03T04:00:27;7.05;;;1.58;;
67156;SDS011;54086;50.126;8.710;2023-02-03T04:02:55;7.10;;;2.00;;
67156;SDS011;54086;50.126;8.710;2023-02-03T04:05:23;5.63;;;1.60;;
67156;SDS011;54086;50.126;8.710;2023-02-03T04:07:50;3.83;;;1.85;;
67156;SDS011;54086;50.126;8.710;2023-02-03T04:10:32;7.30;;;2.10;;
67156;SDS011;54086;50.126;8.710;2023-02-03T04:12:59;4.70;;;1.55;;
67156;SDS011;54086;50.126;8.710;2023-02-03T04:15:25;4.50;;;1.35;;
67156;SDS011;54086;50.126;8.710;2023-02-03T04:17:50;4.83;;;1.50;;
67156;SDS011;54086;50.126;8.710;2023-02-03T04:20:16;4.15;;;1.40;;
67156;SDS011;54086;50.126;8.710;2023-02-03T04:22:42;5.53;;;1.70;;
67156;SDS011;54086;50.126;8.710;2023-02-03T04:25:07;3.90;;;1.60;;
67156;SDS011;54086;50.126;8.710;2023-02-03T04:27:33;5.45;;;1.90;;
67156;SDS011;54086;50.126;8.710;2023-02-03T04:29:59;4.33;;;1.37;;
67156;SDS011;54086;50.126;8.710;2023-02-03T04:32:24;3.40;;;1.23;;
67156;SDS011;54086;50.126;8.710;2023-02-03T04:34:50;3.77;;;1.30;;
67156;SDS011;54086;50.126;8.710;2023-02-03T04:37:16;5.68;;;1.70;;
67156;SDS011;54086;50.126;8.710;2023-02-03T04:39:41;4.50;;;1.30;;
67156;SDS011;54086;50.126;8.710;2023-02-03T04:42:06;3.90;;;1.60;;
67156;SDS011;54086;50.126;8.710;2023-02-03T04:44:32;3.93;;;1.30;;
67156;SDS011;54086;50.126;8.710;2023-02-03T04:46:57;4.53;;;1.67;;
67156;SDS011;54086;50.126;8.710;2023-02-03T04:49:23;5.43;;;1.60;;
67156;SDS011;54086;50.126;8.710;2023-02-03T04:51:48;5.40;;;1.50;;
67156;SDS011;54086;50.126;8.710;2023-02-03T04:54:14;4.10;;;1.58;;
67156;SDS011;54086;50.126;8.710;2023-02-03T04:56:40;6.70;;;1.90;;
67156;SDS011;54086;50.126;8.710;2023-02-03T04:59:05;5.13;;;1.60;;
67156;SDS011;54086;50.126;8.710;2023-02-03T05:01:30;4.33;;;1.70;;
67156;SDS011;54086;50.126;8.710;2023-02-03T05:03:56;4.57;;;1.77;;
67156;SDS011;54086;50.126;8.710;2023-02-03T05:06:25;3.87;;;1.40;;
67156;SDS011;54086;50.126;8.710;2023-02-03T05:08:53;4.27;;;1.50;;
67156;SDS011;54086;50.126;8.710;2023-02-03T05:11:19;5.50;;;1.75;;
67156;SDS011;54086;50.126;8.710;2023-02-03T05:13:45;5.93;;;1.90;;
67156;SDS011;54086;50.126;8.710;2023-02-03T05:16:11;5.37;;;1.70;;
67156;SDS011;54086;50.126;8.710;2023-02-03T05:18:36;4.03;;;1.60;;
67156;SDS011;54086;50.126;8.710;2023-02-03T05:21:01;4.90;;;1.73;;
67156;SDS011;54086;50.126;8.710;2023-02-03T05:23:27;6.13;;;2.07;;
67156;SDS011;54086;50.126;8.710;2023-02-03T05:25:52;5.53;;;1.60;;
67156;SDS011;54086;50.126;8.710;2023-02-03T05:28:17;4.97;;;1.70;;
67156;SDS011;54086;50.126;8.710;2023-02-03T05:30:43;5.17;;;1.83;;
67156;SDS011;54086;50.126;8.710;2023-02-03T05:33:08;4.60;;;1.90;;
67156;SDS011;54086;50.126;8.710;2023-02-03T05:35:33;5.53;;;1.87;;
67156;SDS011;54086;50.126;8.710;2023-02-03T05:37:59;4.75;;;1.77;;
67156;SDS011;54086;50.126;8.710;2023-02-03T05:40:24;7.00;;;1.83;;
67156;SDS011;54086;50.126;8.710;2023-02-03T05:43:09;5.82;;;1.80;;
67156;SDS011;54086;50.126;8.710;2023-02-03T05:45:34;5.50;;;2.00;;
67156;SDS011;54086;50.126;8.710;2023-02-03T05:48:00;5.00;;;1.90;;
67156;SDS011;54086;50.126;8.710;2023-02-03T05:50:29;5.90;;;1.73;;
67156;SDS011;54086;50.126;8.710;2023-02-03T05:53:01;5.32;;;1.52;;
67156;SDS011;54086;50.126;8.710;2023-02-03T05:55:28;3.75;;;1.50;;
67156;SDS011;54086;50.126;8.710;2023-02-03T05:57:54;5.27;;;1.70;;
67156;SDS011;54086;50.126;8.710;2023-02-03T06:00:20;4.20;;;1.60;;
67156;SDS011;54086;50.126;8.710;2023-02-03T06:02:52;4.90;;;1.70;;
67156;SDS011;54086;50.126;8.710;2023-02-03T06:05:23;5.05;;;1.75;;
67156;SDS011;54086;50.126;8.710;2023-02-03T06:07:49;8.27;;;2.00;;
67156;SDS011;54086;50.126;8.710;2023-02-03T06:10:15;6.72;;;2.00;;
67156;SDS011;54086;50.126;8.710;2023-02-03T06:12:41;7.88;;;2.70;;
67156;SDS011;54086;50.126;8.710;2023-02-03T06:15:07;6.87;;;2.17;;
67156;SDS011;54086;50.126;8.710;2023-02-03T06:17:33;6.50;;;2.08;;
67156;SDS011;54086;50.126;8.710;2023-02-03T06:20:00;6.57;;;2.17;;
67156;SDS011;54086;50.126;8.710;2023-02-03T06:22:26;5.93;;;2.00;;
67156;SDS011;54086;50.126;8.710;2023-02-03T06:24:51;7.25;;;2.30;;
67156;SDS011;54086;50.126;8.710;2023-02-03T06:27:17;5.47;;;1.83;;
67156;SDS011;54086;50.126;8.710;2023-02-03T06:29:42;4.83;;;1.50;;
67156;SDS011;54086;50.126;8.710;2023-02-03T06:32:08;4.87;;;1.93;;
67156;SDS011;54086;50.126;8.710;2023-02-03T06:34:33;5.72;;;1.85;;
67156;SDS011;54086;50.126;8.710;2023-02-03T06:36:59;6.23;;;2.00;;
67156;SDS011;54086;50.126;8.710;2023-02-03T06:39:25;7.53;;;2.03;;
67156;SDS011;54086;50.126;8.710;2023-02-03T06:41:50;5.87;;;2.03;;
67156;SDS011;54086;50.126;8.710;2023-02-03T06:44:19;5.60;;;1.90;;
67156;SDS011;54086;50.126;8.710;2023-02-03T06:46:44;7.10;;;2.10;;
67156;SDS011;54086;50.126;8.710;2023-02-03T06:49:09;4.87;;;1.73;;
67156;SDS011;54086;50.126;8.710;2023-02-03T06:51:35;7.20;;;1.93;;
67156;SDS011;54086;50.126;8.710;2023-02-03T06:54:00;6.97;;;1.90;;
67156;SDS011;54086;50.126;8.710;2023-02-03T06:56:27;7.10;;;1.75;;
67156;SDS011;54086;50.126;8.710;2023-02-03T06:58:53;10.50;;;2.00;;
67156;SDS011;54086;50.126;8.710;2023-02-03T07:01:18;6.88;;;2.20;;
67156;SDS011;54086;50.126;8.710;2023-02-03T07:03:43;6.47;;;2.20;;
67156;SDS011;54086;50.126;8.710;2023-02-03T07:06:09;7.03;;;2.00;;
67156;SDS011;54086;50.126;8.710;2023-02-03T07:08:34;6.47;;;1.80;;
67156;SDS011;54086;50.126;8.710;2023-02-03T07:10:59;5.77;;;1.97;;
67156;SDS011;54086;50.126;8.710;2023-02-03T07:13:25;5.07;;;1.60;;
67156;SDS011;54086;50.126;8.710;2023-02-03T07:15:51;7.07;;;2.03;;
67156;SDS011;54086;50.126;8.710;2023-02-03T07:18:17;6.68;;;2.00;;
67156;SDS011;54086;50.126;8.710;2023-02-03T07:20:47;5.45;;;1.80;;
67156;SDS011;54086;50.126;8.710;2023-02-03T07:23:13;5.63;;;2.30;;
67156;SDS011;54086;50.126;8.710;2023-02-03T07:25:39;6.55;;;2.25;;
67156;SDS011;54086;50.126;8.710;2023-02-03T07:28:05;5.47;;;2.10;;
67156;SDS011;54086;50.126;8.710;2023-02-03T07:30:30;5.40;;;2.20;;
67156;SDS011;54086;50.126;8.710;2023-02-03T07:32:56;6.10;;;2.10;;
67156;SDS011;54086;50.126;8.710;2023-02-03T07:35:22;7.00;;;1.92;;
67156;SDS011;54086;50.126;8.710;2023-02-03T07:37:48;5.80;;;2.10;;
67156;SDS011;54086;50.126;8.710;2023-02-03T07:40:14;5.20;;;1.77;;
67156;SDS011;54086;50.126;8.710;2023-02-03T07:42:41;8.27;;;1.73;;
67156;SDS011;54086;50.126;8.710;2023-02-03T07:45:10;7.05;;;2.03;;
67156;SDS011;54086;50.126;8.710;2023-02-03T07:47:37;5.30;;;2.17;;
67156;SDS011;54086;50.126;8.710;2023-02-03T07:50:03;7.27;;;1.97;;
67156;SDS011;54086;50.126;8.710;2023-02-03T07:52:28;4.43;;;1.73;;
67156;SDS011;54086;50.126;8.710;2023-02-03T07:54:53;5.60;;;1.90;;
67156;SDS011;54086;50.126;8.710;2023-02-03T07:57:19;5.50;;;1.67;;
67156;SDS011;54086;50.126;8.710;2023-02-03T07:59:44;5.97;;;1.87;;
67156;SDS011;54086;50.126;8.710;2023-02-03T08:02:09;5.13;;;2.10;;
67156;SDS011;54086;50.126;8.710;2023-02-03T08:04:35;6.20;;;1.80;;
67156;SDS011;54086;50.126;8.710;2023-02-03T08:07:01;6.25;;;1.65;;
67156;SDS011;54086;50.126;8.710;2023-02-03T08:09:27;6.83;;;1.60;;
67156;SDS011;54086;50.126;8.710;2023-02-03T08:11:52;5.27;;;1.50;;
67156;SDS011;54086;50.126;8.710;2023-02-03T08:14:17;5.43;;;1.80;;
67156;SDS011;54086;50.126;8.710;2023-02-03T08:16:43;6.78;;;1.63;;
67156;SDS011;54086;50.126;8.710;2023-02-03T08:19:09;7.03;;;1.90;;
67156;SDS011;54086;50.126;8.710;2023-02-03T08:21:34;5.72;;;1.70;;
67156;SDS011;54086;50.126;8.710;2023-02-03T08:23:59;7.73;;;1.73;;
67156;SDS011;54086;50.126;8.710;2023-02-03T08:26:25;5.63;;;1.50;;
67156;SDS011;54086;50.126;8.710;2023-02-03T08:28:50;6.20;;;1.90;;
67156;SDS011;54086;50.126;8.710;2023-02-03T08:31:16;7.28;;;1.67;;
67156;SDS011;54086;50.126;8.710;2023-02-03T08:33:41;4.90;;;1.63;;
67156;SDS011;54086;50.126;8.710;2023-02-03T08:36:07;6.53;;;1.60;;
67156;SDS011;54086;50.126;8.710;2023-02-03T08:38:33;5.20;;;1.60;;
67156;SDS011;54086;50.126;8.710;2023-02-03T08:40:58;4.57;;;1.67;;
67156;SDS011;54086;50.126;8.710;2023-02-03T08:43:23;6.10;;;1.70;;
67156;SDS011;54086;50.126;8.710;2023-02-03T08:45:49;5.30;;;1.60;;
67156;SDS011;54086;50.126;8.710;2023-02-03T08:48:14;4.30;;;1.42;;
67156;SDS011;54086;50.126;8.710;2023-02-03T08:50:40;5.03;;;1.60;;
67156;SDS011;54086;50.126;8.710;2023-02-03T08:53:08;4.97;;;1.40;;
67156;SDS011;54086;50.126;8.710;2023-02-03T08:55:34;6.17;;;1.53;;
67156;SDS011;54086;50.126;8.710;2023-02-03T08:58:03;6.43;;;1.65;;
67156;SDS011;54086;50.126;8.710;2023-02-03T09:00:28;8.30;;;1.63;;
67156;SDS011;54086;50.126;8.710;2023-02-03T09:02:54;3.92;;;1.40;;
67156;SDS011;54086;50.126;8.710;2023-02-03T09:05:19;5.10;;;1.60;;
67156;SDS011;54086;50.126;8.710;2023-02-03T09:07:45;3.83;;;1.20;;
67156;SDS011;54086;50.126;8.710;2023-02-03T09:10:10;5.47;;;1.40;;
67156;SDS011;54086;50.126;8.710;2023-02-03T09:12:36;6.63;;;1.35;;
67156;SDS011;54086;50.126;8.710;2023-02-03T09:15:01;5.17;;;1.40;;
67156;SDS011;54086;50.126;8.710;2023-02-03T09:17:26;6.10;;;1.47;;
67156;SDS011;54086;50.126;8.710;2023-02-03T09:19:52;5.17;;;1.93;;
67156;SDS011;54086;50.126;8.710;2023-02-03T09:22:17;6.80;;;1.60;;
67156;SDS011;54086;50.126;8.710;2023-02-03T09:24:43;6.03;;;1.70;;
67156;SDS011;54086;50.126;8.710;2023-02-03T09:27:08;4.70;;;1.30;;
67156;SDS011;54086;50.126;8.710;2023-02-03T09:29:34;4.50;;;1.33;;
67156;SDS011;54086;50.126;8.710;2023-02-03T09:31:59;4.45;;;1.45;;
67156;SDS011;54086;50.126;8.710;2023-02-03T09:34:30;8.23;;;1.40;;
67156;SDS011;54086;50.126;8.710;2023-02-03T09:36:56;5.37;;;1.60;;
67156;SDS011;54086;50.126;8.710;2023-02-03T09:39:21;4.27;;;1.50;;
67156;SDS011;54086;50.126;8.710;2023-02-03T09:44:41;5.25;;;1.33;;
67156;SDS011;54086;50.126;8.710;2023-02-03T09:47:31;5.28;;;1.48;;
67156;SDS011;54086;50.126;8.710;2023-02-03T09:50:05;6.72;;;1.38;;
67156;SDS011;54086;50.126;8.710;2023-02-03T09:52:36;6.75;;;1.60;;
67156;SDS011;54086;50.126;8.710;2023-02-03T09:58:14;5.55;;;1.40;;
67156;SDS011;54086;50.126;8.710;2023-02-03T10:01:02;8.98;;;2.42;;
67156;SDS011;54086;50.126;8.710;2023-02-03T10:06:26;4.80;;;1.42;;
67156;SDS011;54086;50.126;8.710;2023-02-03T10:22:28;4.53;;;1.20;;
67156;SDS011;54086;50.126;8.710;2023-02-03T10:25:00;7.32;;;1.50;;
67156;SDS011;54086;50.126;8.710;2023-02-03T10:27:32;7.18;;;1.52;;
67156;SDS011;54086;50.126;8.710;2023-02-03T10:30:03;8.73;;;1.98;;
67156;SDS011;54086;50.126;8.710;2023-02-03T10:32:31;7.32;;;1.83;;
67156;SDS011;54086;50.126;8.710;2023-02-03T10:35:00;6.80;;;1.83;;
67156;SDS011;54086;50.126;8.710;2023-02-03T10:37:32;5.90;;;1.60;;
67156;SDS011;54086;50.126;8.710;2023-02-03T10:40:04;8.88;;;1.40;;
67156;SDS011;54086;50.126;8.710;2023-02-03T10:42:30;7.05;;;1.63;;
67156;SDS011;54086;50.126;8.710;2023-02-03T10:45:17;7.50;;;1.75;;
67156;SDS011;54086;50.126;8.710;2023-02-03T10:47:46;6.50;;;1.40;;
67156;SDS011;54086;50.126;8.710;2023-02-03T10:50:22;7.03;;;2.05;;
67156;SDS011;54086;50.126;8.710;2023-02-03T10:53:18;6.50;;;1.58;;
67156;SDS011;54086;50.126;8.710;2023-02-03T10:56:17;5.97;;;1.80;;
67156;SDS011;54086;50.126;8.710;2023-02-03T10:58:38;7.68;;;2.17;;
67156;SDS011;54086;50.126;8.710;2023-02-03T11:01:11;7.20;;;1.60;;
67156;SDS011;54086;50.126;8.710;2023-02-03T11:03:58;7.97;;;1.48;;
67156;SDS011;54086;50.126;8.710;2023-02-03T11:06:26;15.40;;;2.90;;
67156;SDS011;54086;50.126;8.710;2023-02-03T11:08:52;7.43;;;1.60;;
67156;SDS011;54086;50.126;8.710;2023-02-03T11:11:20;5.78;;;1.80;;
67156;SDS011;54086;50.126;8.710;2023-02-03T11:13:52;6.00;;;1.80;;
67156;SDS011;54086;50.126;8.710;2023-02-03T11:16:27;6.47;;;1.58;;
67156;SDS011;54086;50.126;8.710;2023-02-03T11:21:32;6.50;;;1.70;;
67156;SDS011;54086;50.126;8.710;2023-02-03T11:24:12;6.43;;;1.48;;
67156;SDS011;54086;50.126;8.710;2023-02-03T11:26:53;5.27;;;1.53;;
67156;SDS011;54086;50.126;8.710;2023-02-03T11:29:34;6.90;;;1.83;;
67156;SDS011;54086;50.126;8.710;2023-02-03T11:32:03;7.75;;;1.65;;
67156;SDS011;54086;50.126;8.710;2023-02-03T11:34:39;4.63;;;1.73;;
67156;SDS011;54086;50.126;8.710;2023-02-03T11:42:35;9.93;;;1.48;;
67156;SDS011;54086;50.126;8.710;2023-02-03T11:47:47;8.02;;;2.03;;
67156;SDS011;54086;50.126;8.710;2023-02-03T11:54:01;4.90;;;1.57;;
67156;SDS011;54086;50.126;8.710;2023-02-03T11:59:37;7.13;;;1.45;;
67156;SDS011;54086;50.126;8.710;2023-02-03T12:02:04;5.30;;;1.40;;
67156;SDS011;54086;50.126;8.710;2023-02-03T12:12:44;4.65;;;1.27;;
67156;SDS011;54086;50.126;8.710;2023-02-03T12:23:42;5.05;;;1.83;;
67156;SDS011;54086;50.126;8.710;2023-02-03T12:28:58;5.18;;;1.60;;
67156;SDS011;54086;50.126;8.710;2023-02-03T12:35:01;6.07;;;1.80;;
67156;SDS011;54086;50.126;8.710;2023-02-03T12:40:24;3.92;;;1.50;;
67156;SDS011;54086;50.126;8.710;2023-02-03T12:45:49;7.70;;;2.08;;
67156;SDS011;54086;50.126;8.710;2023-02-03T12:48:22;4.17;;;1.40;;
67156;SDS011;54086;50.126;8.710;2023-02-03T12:50:55;7.15;;;1.75;;
67156;SDS011;54086;50.126;8.710;2023-02-03T12:53:35;6.97;;;1.70;;
67156;SDS011;54086;50.126;8.710;2023-02-03T12:56:06;4.75;;;1.52;;
67156;SDS011;54086;50.126;8.710;2023-02-03T12:58:44;5.70;;;1.70;;
67156;SDS011;54086;50.126;8.710;2023-02-03T13:03:47;5.47;;;1.45;;
67156;SDS011;54086;50.126;8.710;2023-02-03T13:11:39;9.35;;;1.92;;
67156;SDS011;54086;50.126;8.710;2023-02-03T13:14:22;7.80;;;1.73;;
67156;SDS011;54086;50.126;8.710;2023-02-03T13:17:03;5.70;;;1.63;;
67156;SDS011;54086;50.126;8.710;2023-02-03T13:19:40;8.55;;;2.35;;
67156;SDS011;54086;50.126;8.710;2023-02-03T13:22:10;3.78;;;1.45;;
67156;SDS011;54086;50.126;8.710;2023-02-03T13:24:38;6.40;;;2.15;;
67156;SDS011;54086;50.126;8.710;2023-02-03T13:30:19;6.28;;;1.95;;
67156;SDS011;54086;50.126;8.710;2023-02-03T13:43:44;7.32;;;2.13;;
67156;SDS011;54086;50.126;8.710;2023-02-03T13:46:31;9.13;;;2.40;;
67156;SDS011;54086;50.126;8.710;2023-02-03T13:49:00;6.13;;;1.38;;
67156;SDS011;54086;50.126;8.710;2023-02-03T13:54:27;5.17;;;1.60;;
67156;SDS011;54086;50.126;8.710;2023-02-03T13:56:58;6.25;;;1.83;;
67156;SDS011;54086;50.126;8.710;2023-02-03T14:25:21;6.18;;;1.60;;
67156;SDS011;54086;50.126;8.710;2023-02-03T14:27:57;6.72;;;1.98;;
67156;SDS011;54086;50.126;8.710;2023-02-03T14:30:26;5.73;;;1.50;;
67156;SDS011;54086;50.126;8.710;2023-02-03T14:33:01;6.82;;;2.15;;
67156;SDS011;54086;50.126;8.710;2023-02-03T14:35:34;5.85;;;2.03;;
67156;SDS011;54086;50.126;8.710;2023-02-03T14:38:03;6.68;;;1.60;;
67156;SDS011;54086;50.126;8.710;2023-02-03T14:40:34;5.93;;;1.80;;
67156;SDS011;54086;50.126;8.710;2023-02-03T14:57:05;6.23;;;2.00;;
67156;SDS011;54086;50.126;8.710;2023-02-03T15:04:39;5.70;;;1.75;;
67156;SDS011;54086;50.126;8.710;2023-02-03T15:07:04;6.90;;;1.90;;
67156;SDS011;54086;50.126;8.710;2023-02-03T15:09:31;8.02;;;2.00;;
67156;SDS011;54086;50.126;8.710;2023-02-03T15:12:13;7.70;;;2.10;;
67156;SDS011;54086;50.126;8.710;2023-02-03T15:14:47;6.60;;;1.88;;
67156;SDS011;54086;50.126;8.710;2023-02-03T15:19:51;5.75;;;1.90;;
67156;SDS011;54086;50.126;8.710;2023-02-03T15:22:21;6.78;;;2.25;;
67156;SDS011;54086;50.126;8.710;2023-02-03T15:24:55;8.03;;;1.73;;
67156;SDS011;54086;50.126;8.710;2023-02-03T15:27:24;6.40;;;2.28;;
67156;SDS011;54086;50.126;8.710;2023-02-03T15:29:52;8.48;;;2.60;;
67156;SDS011;54086;50.126;8.710;2023-02-03T15:32:25;6.32;;;1.95;;
67156;SDS011;54086;50.126;8.710;2023-02-03T15:35:01;6.88;;;2.08;;
67156;SDS011;54086;50.126;8.710;2023-02-03T15:37:32;7.53;;;2.50;;
67156;SDS011;54086;50.126;8.710;2023-02-03T15:40:16;6.20;;;2.00;;
67156;SDS011;54086;50.126;8.710;2023-02-03T15:51:00;9.77;;;3.10;;
67156;SDS011;54086;50.126;8.710;2023-02-03T15:56:12;6.93;;;2.95;;
67156;SDS011;54086;50.126;8.710;2023-02-03T15:59:02;8.57;;;2.60;;
67156;SDS011;54086;50.126;8.710;2023-02-03T16:01:29;9.95;;;3.45;;
67156;SDS011;54086;50.126;8.710;2023-02-03T16:03:55;10.50;;;2.70;;
67156;SDS011;54086;50.126;8.710;2023-02-03T16:06:34;7.05;;;2.83;;
67156;SDS011;54086;50.126;8.710;2023-02-03T16:09:05;10.13;;;3.03;;
67156;SDS011;54086;50.126;8.710;2023-02-03T16:11:49;9.18;;;2.80;;
67156;SDS011;54086;50.126;8.710;2023-02-03T16:14:30;6.43;;;2.50;;
67156;SDS011;54086;50.126;8.710;2023-02-03T16:16:57;8.90;;;2.45;;
67156;SDS011;54086;50.126;8.710;2023-02-03T16:19:23;8.10;;;2.47;;
67156;SDS011;54086;50.126;8.710;2023-02-03T16:21:52;6.70;;;2.35;;
67156;SDS011;54086;50.126;8.710;2023-02-03T16:29:44;10.03;;;3.23;;
67156;SDS011;54086;50.126;8.710;2023-02-03T16:32:28;9.57;;;2.83;;
67156;SDS011;54086;50.126;8.710;2023-02-03T16:35:12;7.55;;;2.50;;
67156;SDS011;54086;50.126;8.710;2023-02-03T16:38:03;8.07;;;2.70;;
67156;SDS011;54086;50.126;8.710;2023-02-03T16:40:48;10.07;;;3.40;;
67156;SDS011;54086;50.126;8.710;2023-02-03T16:43:32;10.53;;;3.53;;
67156;SDS011;54086;50.126;8.710;2023-02-03T16:46:16;8.48;;;3.00;;
67156;SDS011;54086;50.126;8.710;2023-02-03T16:49:00;9.45;;;2.83;;
67156;SDS011;54086;50.126;8.710;2023-02-03T16:51:44;10.15;;;3.00;;
67156;SDS011;54086;50.126;8.710;2023-02-03T16:54:11;7.10;;;2.47;;
67156;SDS011;54086;50.126;8.710;2023-02-03T16:56:37;7.10;;;2.60;;
67156;SDS011;54086;50.126;8.710;2023-02-03T16:59:02;9.57;;;3.07;;
67156;SDS011;54086;50.126;8.710;2023-02-03T17:01:28;8.23;;;3.60;;
67156;SDS011;54086;50.126;8.710;2023-02-03T17:03:53;8.50;;;3.27;;
67156;SDS011;54086;50.126;8.710;2023-02-03T17:06:19;9.20;;;3.03;;
67156;SDS011;54086;50.126;8.710;2023-02-03T17:08:44;10.53;;;4.30;;
67156;SDS011;54086;50.126;8.710;2023-02-03T17:11:12;8.43;;;3.55;;
67156;SDS011;54086;50.126;8.710;2023-02-03T17:13:42;10.02;;;3.30;;
67156;SDS011;54086;50.126;8.710;2023-02-03T17:16:12;8.33;;;3.13;;
67156;SDS011;54086;50.126;8.710;2023-02-03T17:18:40;8.77;;;3.53;;
67156;SDS011;54086;50.126;8.710;2023-02-03T17:21:07;9.40;;;3.13;;
67156;SDS011;54086;50.126;8.710;2023-02-03T17:23:35;9.07;;;3.15;;
67156;SDS011;54086;50.126;8.710;2023-02-03T17:26:00;8.43;;;3.53;;
67156;SDS011;54086;50.126;8.710;2023-02-03T17:28:26;11.50;;;3.72;;
67156;SDS011;54086;50.126;8.710;2023-02-03T17:31:01;8.00;;;3.10;;
67156;SDS011;54086;50.126;8.710;2023-02-03T17:33:29;9.77;;;3.50;;
67156;SDS011;54086;50.126;8.710;2023-02-03T17:38:38;9.07;;;3.63;;
67156;SDS011;54086;50.126;8.710;2023-02-03T17:41:09;8.38;;;3.25;;
67156;SDS011;54086;50.126;8.710;2023-02-03T17:43:35;10.32;;;4.32;;
67156;SDS011;54086;50.126;8.710;2023-02-03T17:46:01;10.03;;;3.77;;
67156;SDS011;54086;50.126;8.710;2023-02-03T17:48:26;8.33;;;3.20;;
67156;SDS011;54086;50.126;8.710;2023-02-03T17:50:51;8.43;;;3.77;;
67156;SDS011;54086;50.126;8.710;2023-02-03T17:53:17;11.23;;;4.23;;
67156;SDS011;54086;50.126;8.710;2023-02-03T17:55:42;11.17;;;4.23;;